메인 페이지
METAR-TAF:

METAR-TAF

공항 :

마드리드 바라하스 국제공항

마드리드, 스페인

위도: 40-27N, 경도: 003-33W, 고도: 609m

현재 날씨관측

예보는 19분 전, 02:00시(UTC)에 발표되었습니다.
여러 방향의 바람 2kt
온도 17°C
습도 68%
기압 1015 hPa
시정 10km 이상
1500m 미만 상공 구름 및 적란운 없음

METAR: LEMD 300200Z VRB02KT CAVOK 17/11 Q1015 NOSIG

시각: 04:19 (02:19 UTC)

예보

예보는 3 시간 19분 전, 23:00시(UTC)에 발표되었습니다.
예보 대상 시간: 30일 00시부터 31일 06시까지 (UTC)
여러 방향의 바람 4kt
시정 10km 이상
1500m 미만 상공 구름 및 적란운 없음
일시적
30일 00시부터 30일 07시까지 (UTC)
북동10kt
확률 30% :
일시적
30일 11시부터 30일 21시까지 (UTC)
10kt
고도 2500ft 상공 구름 조금, 타워링 적운.

TAF: LEMD 292300Z 3000/3106 VRB04KT CAVOK TX32/3016Z TN13/3006Z TEMPO 3000/3007 04010KT PROB30 TEMPO 3011/3021 18010KT FEW025TCU

4,000개 이상의 공항 관측 자료 및 예보 (METAR 및 TAF 보고).

지도상에서 검색 가능한 기상관측소가 노란 점과 빨간 점으로 표시되어 있습니다.

기상관측소 명을 보려면 표시 위로 마우스를 이동하세요.

날씨 관측과 예보를 보려면 클릭하세요.

지도 변경 : 확대하려면 엑스 표시가 있는 녹색 버튼, 축소하려면 빼기 표시가 있는 녹색 버튼, 다음 페이지의 지도를 보려면 녹색 화살표를 클릭하세요.


METAR-TAF: